HS Bizet — A8MI3 — position and weather

sailwx.info

Track history (hours):
 
Tides and Currents Weather Stations Pressure Air Temp Water Temp Dewpoint Dewpoint Depression Visibility Wind Speed Wind Dir Waves Ship Positions

HS Bizet

Last reported at 2017-Mar-27 11:33 UTC. Time now 2017-Mar-30 08:55 UTC.
Position S 36°18' E 174°59'.

Length 246 m; draft 9.8 m.

Type: Ship (hazmat cat A). MMSI: 636091349.

Date/timePositionNaut miles runAvg speedWind from/ knotsBaromVisibWave heightAir tempDewpointWater temp
2017-Mar-27 11:33S 36°18' E 174°59'10 9.6
2017-Mar-27 10:33S 36°28' E 174°59'9 9.2
2017-Mar-27 09:33S 36°37' E 174°57'1110.9
2017-Mar-27 08:33S 36°46' E 174°49'5 5.2
2017-Mar-27 07:33S 36°51' E 174°47'0 0.0
2017-Mar-27 06:33S 36°51' E 174°47'0 0.0
2017-Mar-27 05:33S 36°51' E 174°47'0 0.0
2017-Mar-26 23:15S 36°51' E 174°47'0 0.0
2017-Mar-26 19:33S 36°51' E 174°47'2 2.0
2017-Mar-26 18:31S 36°50' E 174°49'1010.2
2017-Mar-26 17:33S 36°41' E 174°54'10 9.8
2017-Mar-26 16:33S 36°33' E 175°02'10 9.9
2017-Mar-26 15:33S 36°27' E 175°12'  
Track history (hours):
 
Tides and Currents Weather Stations Pressure Air Temp Water Temp Dewpoint Dewpoint Depression Visibility Wind Speed Wind Dir Waves Ship Positions

HS Bizet

Last reported at 2017-Mar-27 11:33 UTC. Time now 2017-Mar-30 08:55 UTC.
Position S 36°18' E 174°59'.

Length 246 m; draft 9.8 m.

Type: Ship (hazmat cat A). MMSI: 636091349.

Date/timePositionNaut miles runAvg speedWind from/ knotsBaromVisibWave heightAir tempDewpointWater temp
2017-Mar-27 11:33S 36°18' E 174°59'10 9.6
2017-Mar-27 10:33S 36°28' E 174°59'9 9.2
2017-Mar-27 09:33S 36°37' E 174°57'1110.9
2017-Mar-27 08:33S 36°46' E 174°49'5 5.2
2017-Mar-27 07:33S 36°51' E 174°47'0 0.0
2017-Mar-27 06:33S 36°51' E 174°47'0 0.0
2017-Mar-27 05:33S 36°51' E 174°47'0 0.0
2017-Mar-26 23:15S 36°51' E 174°47'0 0.0
2017-Mar-26 19:33S 36°51' E 174°47'2 2.0
2017-Mar-26 18:31S 36°50' E 174°49'1010.2
2017-Mar-26 17:33S 36°41' E 174°54'10 9.8
2017-Mar-26 16:33S 36°33' E 175°02'10 9.9
2017-Mar-26 15:33S 36°27' E 175°12'  

Dump ship's entire track history